Liberty Hill, Texas
Current Conditions -  °F | °C
As of 4:15 AM on Friday 19 Dec 2014 (Local Time) from KRYW Reporting Station
Thunderstorm Thunderstorm  
Wind Chill: 44°   Ceiling: 300
Heat Index: 48°   Visibility: 1.7mi
Dew Point: 46°   Wind: 8mph
Humidity: 95%   Direction: 30°NNE
Pressure: 30.06"   Gusts: NA
Location:  30.66°N, 97.92°W
Report Text: KRYW 191015Z AUTO 03007KT 1 3/4SM +VCTSDZ OVC003 09/08 A3006 RMK AO2 LTG DSNT ALQS T00870080
Loading
Personal Weather Stations






























Interactive Weather Map New forecast layout! Learn more

10-Day Weather Forecast

Advertisements
Track Severe Weather on mobile